Time;durP1;ratioP1;P1;durP2;ratioP2;P2;SDS_P1;SDS_P2;PMS_P1;PMS_P2;Temp;Humidity;BMP_temperature;BMP_pressure;BME280_temperature;BME280_humidity;BME280_pressure;Samples;Min_cycle;Max_cycle;Signal;HPM_P1;HPM_P2
2023/11/28 00:00:54;;;;;;;6.20;2.80;;;4.70;99.90;;;;;;3963703;30;20185;-92
2023/11/28 00:02:56;;;;;;;6.30;3.03;;;4.70;99.90;;;;;;3949096;30;20178;-93
2023/11/28 00:04:56;;;;;;;7.30;2.83;;;4.70;99.90;;;;;;3963384;29;20284;-92
2023/11/28 00:06:58;;;;;;;4.47;2.33;;;4.70;99.90;;;;;;3963203;29;20193;-92
2023/11/28 00:08:59;;;;;;;5.93;3.00;;;4.70;99.90;;;;;;3948069;30;20296;-90
2023/11/28 00:11:00;;;;;;;6.03;3.17;;;4.80;99.90;;;;;;3948604;29;20536;-91
2023/11/28 00:13:01;;;;;;;5.47;2.60;;;4.90;99.90;;;;;;3963411;30;20543;-91
2023/11/28 00:15:02;;;;;;;4.10;2.47;;;4.90;99.90;;;;;;3963969;29;20188;-93
2023/11/28 00:17:03;;;;;;;7.50;3.53;;;4.80;99.90;;;;;;3949120;30;20667;-92
2023/11/28 00:19:04;;;;;;;3.93;2.10;;;4.80;99.90;;;;;;3948436;30;20262;-92
2023/11/28 00:21:05;;;;;;;4.73;2.77;;;4.80;99.90;;;;;;3948354;30;20637;-93
2023/11/28 00:23:06;;;;;;;5.23;2.87;;;4.70;99.90;;;;;;3949109;30;20644;-92
2023/11/28 00:25:07;;;;;;;6.30;2.90;;;4.70;99.90;;;;;;3962950;30;20188;-91
2023/11/28 00:27:31;;;;;;;6.83;3.90;;;4.70;99.90;;;;;;3948339;30;20182;-93
2023/11/28 00:29:32;;;;;;;4.80;2.47;;;4.70;99.90;;;;;;3948338;30;20194;-92
2023/11/28 00:31:33;;;;;;;6.37;2.60;;;4.70;99.90;;;;;;3948307;30;20555;-93
2023/11/28 00:33:47;;;;;;;4.27;1.93;;;4.70;99.90;;;;;;3948049;30;20248;-92
2023/11/28 00:35:48;;;;;;;6.67;3.17;;;4.60;99.90;;;;;;3949136;30;20234;-92
2023/11/28 00:37:49;;;;;;;6.67;3.10;;;4.70;99.90;;;;;;3962813;30;20216;-92
2023/11/28 00:39:50;;;;;;;6.23;3.07;;;4.50;99.90;;;;;;3948049;30;20197;-91
2023/11/28 00:41:50;;;;;;;4.90;1.97;;;4.70;99.90;;;;;;3948011;30;20181;-91
2023/11/28 00:43:53;;;;;;;6.03;2.93;;;4.70;99.90;;;;;;3948079;30;20182;-92
2023/11/28 00:45:53;;;;;;;10.50;3.50;;;4.90;99.90;;;;;;3948012;30;20526;-93
2023/11/28 00:47:54;;;;;;;4.93;2.87;;;4.90;99.90;;;;;;3947859;30;20255;-92
2023/11/28 00:49:56;;;;;;;5.10;2.53;;;5.00;99.90;;;;;;3948108;30;20259;-92
2023/11/28 00:51:57;;;;;;;6.67;2.83;;;5.10;99.90;;;;;;3947994;30;20189;-92
2023/11/28 00:53:58;;;;;;;5.57;2.57;;;5.20;99.90;;;;;;3962602;29;20173;-93
2023/11/28 00:56:03;;;;;;;5.43;2.77;;;5.20;99.90;;;;;;3948086;30;20225;-94
2023/11/28 00:58:11;;;;;;;7.07;2.37;;;5.10;99.90;;;;;;3947690;30;20225;-93
2023/11/28 01:00:13;;;;;;;7.00;3.67;;;5.00;99.90;;;;;;3948232;30;20209;-93
2023/11/28 01:02:15;;;;;;;5.80;3.53;;;4.90;99.90;;;;;;3948149;29;20653;-91
2023/11/28 01:04:16;;;;;;;6.97;3.20;;;4.90;99.90;;;;;;3962534;29;20271;-91
2023/11/28 01:06:17;;;;;;;6.33;2.63;;;4.90;99.90;;;;;;3948232;30;20190;-93
2023/11/28 01:08:18;;;;;;;8.50;3.90;;;4.90;99.90;;;;;;3947787;30;20181;-92
2023/11/28 01:10:19;;;;;;;5.87;3.13;;;5.00;99.90;;;;;;3962484;29;20220;-92
2023/11/28 01:12:20;;;;;;;4.23;1.77;;;5.00;99.90;;;;;;3947711;30;20189;-92
2023/11/28 01:14:21;;;;;;;7.20;3.63;;;5.10;99.90;;;;;;3947624;30;20567;-92
2023/11/28 01:16:22;;;;;;;6.03;3.40;;;5.10;99.90;;;;;;3962096;30;20176;-92
2023/11/28 01:18:22;;;;;;;7.60;3.33;;;5.20;99.90;;;;;;3947673;30;20193;-92
2023/11/28 01:20:23;;;;;;;7.53;3.03;;;5.10;99.90;;;;;;3947492;30;20641;-92
2023/11/28 01:22:29;;;;;;;6.37;3.10;;;5.30;99.90;;;;;;3962339;29;20721;-94
2023/11/28 01:24:30;;;;;;;7.63;3.20;;;5.30;99.90;;;;;;3962222;29;20184;-92
2023/11/28 01:26:31;;;;;;;7.00;3.03;;;5.30;99.90;;;;;;3947389;30;20197;-93
2023/11/28 01:28:33;;;;;;;5.67;2.20;;;5.20;99.90;;;;;;3947482;30;20624;-92
2023/11/28 01:30:34;;;;;;;5.90;2.37;;;5.20;99.90;;;;;;3947284;30;20676;-91
2023/11/28 01:32:35;;;;;;;6.77;2.43;;;5.20;99.90;;;;;;3962197;30;20180;-92
2023/11/28 01:34:37;;;;;;;5.33;2.73;;;5.20;99.90;;;;;;3947268;30;20181;-92
2023/11/28 01:36:40;;;;;;;5.17;2.53;;;5.30;99.90;;;;;;3947634;30;20217;-92
2023/11/28 01:38:43;;;;;;;7.03;2.87;;;5.20;99.90;;;;;;3947582;30;20644;-94
2023/11/28 01:40:49;;;;;;;6.80;2.77;;;5.10;99.90;;;;;;3947191;30;20224;-91
2023/11/28 01:42:49;;;;;;;5.93;2.70;;;5.00;99.90;;;;;;3947287;30;20268;-92
2023/11/28 01:44:50;;;;;;;6.60;2.30;;;5.00;99.90;;;;;;3962542;29;20181;-92
2023/11/28 01:46:53;;;;;;;5.77;2.80;;;5.10;99.90;;;;;;3947381;30;20674;-93
2023/11/28 01:48:54;;;;;;;4.83;2.47;;;5.20;99.90;;;;;;3947418;30;20254;-91
2023/11/28 01:50:55;;;;;;;4.93;2.33;;;5.20;99.90;;;;;;3947465;30;20177;-92
2023/11/28 01:52:56;;;;;;;4.83;2.37;;;5.20;99.90;;;;;;3947119;30;20193;-92
2023/11/28 01:55:00;;;;;;;4.10;2.13;;;5.20;99.90;;;;;;3947373;30;20691;-92
2023/11/28 01:57:02;;;;;;;3.67;1.93;;;5.20;99.90;;;;;;3947209;30;20205;-92
2023/11/28 01:59:06;;;;;;;5.97;2.53;;;5.20;99.90;;;;;;3947318;30;20626;-92
2023/11/28 02:01:10;;;;;;;5.93;2.73;;;5.10;99.90;;;;;;3947664;30;20186;-92
2023/11/28 02:03:14;;;;;;;8.23;3.30;;;5.20;99.90;;;;;;3947588;30;20193;-91
2023/11/28 02:05:16;;;;;;;5.33;2.57;;;5.10;99.90;;;;;;3947175;30;20281;-92
2023/11/28 02:07:18;;;;;;;4.43;2.63;;;5.30;99.90;;;;;;3946900;30;20645;-92
2023/11/28 02:09:22;;;;;;;5.73;2.33;;;5.40;99.90;;;;;;3961530;29;20262;-92
2023/11/28 02:11:23;;;;;;;5.73;3.07;;;5.50;99.90;;;;;;3946834;30;20174;-91
2023/11/28 02:13:24;;;;;;;5.20;2.37;;;5.50;99.90;;;;;;3946923;30;20189;-92
2023/11/28 02:15:45;;;;;;;6.20;2.83;;;5.50;99.90;;;;;;3961685;29;20177;-93
2023/11/28 02:17:46;;;;;;;5.63;2.40;;;5.40;99.90;;;;;;3947039;30;20225;-92
2023/11/28 02:19:50;;;;;;;5.53;2.50;;;5.20;99.90;;;;;;3961499;29;20199;-92
2023/11/28 02:21:51;;;;;;;5.10;2.80;;;5.30;99.90;;;;;;3961994;29;20287;-92
2023/11/28 02:23:52;;;;;;;5.17;2.70;;;5.30;99.90;;;;;;3946867;30;20178;-92
2023/11/28 02:25:56;;;;;;;5.80;2.73;;;5.20;99.90;;;;;;3947277;30;20181;-95
2023/11/28 02:27:57;;;;;;;2.07;1.23;;;5.10;99.90;;;;;;3946721;30;20173;-92
2023/11/28 02:29:58;;;;;;;4.87;2.47;;;5.20;99.90;;;;;;3961517;29;20600;-94
2023/11/28 02:31:58;;;;;;;4.47;2.60;;;5.20;99.90;;;;;;3948543;30;20170;-94
2023/11/28 02:33:59;;;;;;;3.27;1.87;;;5.40;99.90;;;;;;3961553;29;20184;-94
2023/11/28 02:36:00;;;;;;;5.47;2.60;;;5.40;99.90;;;;;;3946796;30;20236;-92
2023/11/28 02:38:01;;;;;;;5.37;2.83;;;5.20;99.90;;;;;;3961601;30;20221;-91
2023/11/28 02:40:02;;;;;;;4.37;2.23;;;5.20;99.90;;;;;;3947012;30;20193;-94
2023/11/28 02:42:03;;;;;;;6.10;2.83;;;5.10;99.90;;;;;;3946956;30;20240;-93
2023/11/28 02:44:04;;;;;;;4.87;2.57;;;5.00;99.90;;;;;;3947069;30;20177;-93
2023/11/28 02:46:05;;;;;;;5.83;2.90;;;4.90;99.90;;;;;;3962005;29;20249;-91
2023/11/28 02:48:09;;;;;;;5.30;2.93;;;4.80;99.90;;;;;;3962263;30;20181;-94
2023/11/28 02:50:23;;;;;;;4.57;2.37;;;4.70;99.90;;;;;;3947184;30;20202;-94
2023/11/28 02:52:56;;;;;;;4.77;2.70;;;4.60;99.90;;;;;;3963605;29;20714;-93
2023/11/28 02:55:04;;;;;;;3.87;1.93;;;4.60;99.90;;;;;;3948266;30;20182;-94
2023/11/28 02:57:16;;;;;;;5.43;1.93;;;4.50;99.90;;;;;;3961932;30;20221;-92
2023/11/28 02:59:17;;;;;;;2.43;1.43;;;4.60;99.90;;;;;;3947446;30;20240;-93
2023/11/28 03:01:23;;;;;;;2.80;1.40;;;4.60;99.90;;;;;;3948216;30;20182;-93
2023/11/28 03:03:24;;;;;;;3.13;1.80;;;4.50;99.90;;;;;;3947209;30;20682;-94
2023/11/28 03:05:27;;;;;;;2.70;1.23;;;4.50;99.90;;;;;;3963241;29;20209;-92
2023/11/28 03:07:35;;;;;;;4.10;1.53;;;4.40;99.90;;;;;;3963188;30;20181;-93
2023/11/28 03:10:06;;;;;;;3.27;1.70;;;4.30;99.90;;;;;;3966515;29;20243;-93
2023/11/28 03:12:45;;;;;;;2.77;1.43;;;4.30;99.90;;;;;;3947420;30;20194;-94
2023/11/28 03:14:55;;;;;;;1.70;1.00;;;4.20;99.90;;;;;;3953080;29;20193;-94
2023/11/28 03:17:16;;;;;;;5.80;1.80;;;4.20;99.90;;;;;;3962753;29;20304;-94
2023/11/28 03:19:31;;;;;;;2.47;1.60;;;4.20;99.90;;;;;;3949750;30;20205;-94
2023/11/28 03:21:41;;;;;;;2.20;1.23;;;4.10;99.90;;;;;;3949982;30;20185;-91
2023/11/28 03:23:50;;;;;;;2.20;1.60;;;4.20;99.90;;;;;;3949906;30;20185;-93
2023/11/28 03:25:51;;;;;;;2.30;1.60;;;4.20;99.90;;;;;;3949267;30;20174;-92
2023/11/28 03:27:59;;;;;;;3.13;1.87;;;4.30;99.90;;;;;;3963951;30;20177;-93
2023/11/28 03:30:02;;;;;;;3.83;2.00;;;4.40;99.90;;;;;;3949226;30;20699;-93
2023/11/28 03:32:04;;;;;;;2.50;1.63;;;4.30;99.90;;;;;;3949112;30;20185;-92
2023/11/28 03:34:06;;;;;;;2.77;1.43;;;4.40;99.90;;;;;;3949005;30;20178;-92
2023/11/28 03:36:16;;;;;;;2.60;1.47;;;4.50;99.90;;;;;;3948962;30;20181;-92
2023/11/28 03:38:16;;;;;;;2.63;1.30;;;4.40;99.90;;;;;;3948968;30;20276;-92
2023/11/28 03:40:17;;;;;;;2.20;1.30;;;4.60;99.90;;;;;;3948844;30;20209;-92
2023/11/28 03:42:21;;;;;;;3.13;1.53;;;4.80;99.90;;;;;;3963825;29;20707;-96
2023/11/28 03:44:22;;;;;;;2.70;1.30;;;4.90;99.90;;;;;;3948958;30;20192;-95
2023/11/28 03:46:29;;;;;;;1.40;0.90;;;5.00;99.90;;;;;;3978389;29;20183;-92
2023/11/28 03:48:30;;;;;;;4.97;2.03;;;4.90;99.90;;;;;;3963574;29;20192;-93
2023/11/28 03:50:31;;;;;;;3.17;1.67;;;4.80;99.90;;;;;;3948911;30;20188;-92
2023/11/28 03:52:34;;;;;;;3.07;1.63;;;5.10;99.90;;;;;;3949025;30;20181;-93
2023/11/28 03:54:34;;;;;;;3.27;1.70;;;5.30;99.90;;;;;;3948554;30;20852;-92
2023/11/28 03:56:35;;;;;;;3.97;1.90;;;5.00;99.90;;;;;;3963816;29;20277;-92
2023/11/28 03:58:36;;;;;;;3.67;2.50;;;4.90;99.90;;;;;;3948889;30;20213;-93
2023/11/28 04:00:37;;;;;;;4.27;2.60;;;4.90;99.90;;;;;;3949545;30;20182;-93
2023/11/28 04:02:38;;;;;;;5.47;2.37;;;5.00;99.90;;;;;;3964871;29;20597;-93
2023/11/28 04:04:39;;;;;;;3.03;1.73;;;5.10;99.90;;;;;;3963914;29;20189;-93
2023/11/28 04:06:41;;;;;;;3.70;2.37;;;5.00;99.90;;;;;;3948822;30;20185;-93
2023/11/28 04:08:42;;;;;;;5.23;2.27;;;4.80;99.90;;;;;;3948630;30;20209;-92
2023/11/28 04:10:43;;;;;;;5.57;2.70;;;4.80;99.90;;;;;;3948845;30;20207;-93
2023/11/28 04:12:44;;;;;;;7.17;2.90;;;4.90;99.90;;;;;;3963546;30;20244;-93
2023/11/28 04:14:45;;;;;;;5.97;2.97;;;4.90;99.90;;;;;;3949182;30;20204;-92
2023/11/28 04:16:46;;;;;;;5.57;2.90;;;4.90;99.90;;;;;;3949100;30;20339;-95
2023/11/28 04:18:51;;;;;;;5.43;3.07;;;4.90;99.90;;;;;;3948408;30;20265;-93
2023/11/28 04:20:52;;;;;;;5.40;2.53;;;4.80;99.90;;;;;;3948590;30;20273;-93
2023/11/28 04:22:53;;;;;;;7.93;3.03;;;4.80;99.90;;;;;;3963486;29;20177;-93
2023/11/28 04:24:55;;;;;;;6.30;3.60;;;4.70;99.90;;;;;;3948342;30;20189;-92
2023/11/28 04:26:56;;;;;;;5.43;2.80;;;4.70;99.90;;;;;;3963255;30;20189;-92
2023/11/28 04:28:57;;;;;;;4.10;2.57;;;4.80;99.90;;;;;;3948626;30;20318;-92
2023/11/28 04:31:00;;;;;;;5.53;3.03;;;4.70;99.90;;;;;;3963097;29;20578;-93
2023/11/28 04:33:02;;;;;;;6.20;3.50;;;4.80;99.90;;;;;;3963764;30;20249;-92
2023/11/28 04:35:03;;;;;;;12.90;3.73;;;4.80;99.90;;;;;;3963051;29;20173;-94
2023/11/28 04:37:05;;;;;;;5.87;3.33;;;4.70;99.90;;;;;;3948560;30;20284;-92
2023/11/28 04:39:07;;;;;;;6.73;3.20;;;4.70;99.90;;;;;;3965698;29;20201;-92
2023/11/28 04:41:27;;;;;;;6.70;3.70;;;4.60;99.90;;;;;;3948926;30;20675;-95
2023/11/28 04:43:45;;;;;;;7.27;3.37;;;4.50;99.90;;;;;;3963711;30;20173;-94
2023/11/28 04:45:52;;;;;;;6.60;3.60;;;4.40;99.90;;;;;;3950330;30;20193;-93
2023/11/28 04:48:02;;;;;;;7.30;3.23;;;4.40;99.90;;;;;;3948532;30;20193;-93
2023/11/28 04:50:10;;;;;;;5.03;3.03;;;4.40;99.90;;;;;;3964876;29;20236;-92
2023/11/28 04:52:18;;;;;;;5.37;3.07;;;4.30;99.90;;;;;;3948059;30;20194;-93
2023/11/28 04:54:30;;;;;;;5.03;2.23;;;4.30;99.90;;;;;;3948282;30;20213;-93
2023/11/28 04:56:38;;;;;;;3.50;1.83;;;4.40;99.90;;;;;;3962984;29;20184;-94
2023/11/28 04:58:41;;;;;;;5.13;2.63;;;4.40;99.90;;;;;;3948247;30;20240;-92
2023/11/28 05:00:52;;;;;;;5.87;2.47;;;4.40;99.90;;;;;;3963003;29;20233;-94
2023/11/28 05:03:01;;;;;;;4.93;2.73;;;4.50;99.90;;;;;;3948854;30;20189;-94
2023/11/28 05:05:21;;;;;;;7.60;3.07;;;4.40;99.90;;;;;;3948793;30;20182;-94
2023/11/28 05:07:37;;;;;;;5.93;2.80;;;4.30;99.90;;;;;;3950823;30;20284;-93
2023/11/28 05:09:43;;;;;;;4.53;2.57;;;4.40;99.90;;;;;;3951166;30;20219;-94
2023/11/28 05:11:45;;;;;;;5.03;2.83;;;4.30;99.90;;;;;;3949594;30;20306;-93
2023/11/28 05:13:45;;;;;;;5.77;2.90;;;4.30;99.90;;;;;;3947537;30;20178;-93
2023/11/28 05:15:49;;;;;;;6.93;3.40;;;4.40;99.90;;;;;;3962366;30;20242;-94
2023/11/28 05:17:50;;;;;;;6.47;2.20;;;4.50;99.90;;;;;;3948017;30;20229;-93
2023/11/28 05:19:51;;;;;;;4.67;2.63;;;4.40;99.90;;;;;;3962899;29;20296;-94
2023/11/28 05:22:03;;;;;;;4.70;2.43;;;4.40;99.90;;;;;;3947769;30;20774;-91
2023/11/28 05:24:26;;;;;;;3.67;2.07;;;4.50;99.90;;;;;;3950343;30;20192;-94
2023/11/28 05:26:57;;;;;;;4.93;2.53;;;4.40;99.90;;;;;;3948636;30;20265;-93
2023/11/28 05:28:58;;;;;;;4.73;2.17;;;4.20;99.90;;;;;;3951329;30;20359;-93
2023/11/28 05:30:59;;;;;;;4.43;2.30;;;4.20;99.90;;;;;;3949402;30;20177;-95
2023/11/28 05:33:03;;;;;;;3.23;1.60;;;4.20;99.90;;;;;;3947738;30;20220;-94
2023/11/28 05:35:20;;;;;;;5.10;2.57;;;4.30;99.90;;;;;;3951094;30;20192;-93
2023/11/28 05:37:56;;;;;;;6.13;2.80;;;4.30;99.90;;;;;;3948211;29;20217;-92
2023/11/28 05:40:00;;;;;;;2.57;1.50;;;4.30;99.90;;;;;;3947451;30;20208;-94
2023/11/28 05:42:04;;;;;;;4.20;2.07;;;4.20;99.90;;;;;;3947487;30;20575;-93
2023/11/28 05:44:06;;;;;;;4.50;2.13;;;4.20;99.90;;;;;;3948603;29;20188;-93
2023/11/28 05:46:08;;;;;;;6.50;2.63;;;4.20;99.90;;;;;;3948205;30;20177;-91
2023/11/28 05:48:08;;;;;;;4.43;2.67;;;4.20;99.90;;;;;;3962207;29;20711;-93
2023/11/28 05:50:12;;;;;;;3.23;1.97;;;4.20;99.90;;;;;;3948910;30;20201;-93
2023/11/28 05:52:19;;;;;;;2.83;1.70;;;4.20;99.90;;;;;;3949083;30;20204;-95
2023/11/28 05:54:20;;;;;;;3.53;2.20;;;4.10;99.90;;;;;;3947534;30;20270;-93
2023/11/28 05:56:21;;;;;;;4.80;2.20;;;4.20;99.90;;;;;;3965078;29;20181;-94
2023/11/28 05:58:22;;;;;;;4.23;2.37;;;4.20;99.90;;;;;;3947273;30;20220;-92
2023/11/28 06:00:41;;;;;;;2.03;1.40;;;4.30;99.90;;;;;;3962905;29;20216;-92
2023/11/28 06:02:42;;;;;;;5.90;1.77;;;4.20;99.90;;;;;;3947960;30;20601;-93
2023/11/28 06:04:43;;;;;;;4.27;2.07;;;4.20;99.90;;;;;;3947320;30;20579;-92
2023/11/28 06:06:47;;;;;;;5.13;2.33;;;4.20;99.90;;;;;;3947291;30;20177;-92
2023/11/28 06:08:51;;;;;;;3.37;1.67;;;4.20;99.90;;;;;;3947657;29;20217;-93
2023/11/28 06:10:52;;;;;;;4.23;2.20;;;4.20;99.90;;;;;;3947453;30;20262;-93
2023/11/28 06:12:54;;;;;;;3.47;1.83;;;4.20;99.90;;;;;;3947167;30;20197;-93
2023/11/28 06:14:55;;;;;;;2.17;1.70;;;4.30;99.90;;;;;;3947318;30;20188;-93
2023/11/28 06:16:59;;;;;;;4.80;2.43;;;4.40;99.90;;;;;;3962280;29;20279;-91
2023/11/28 06:19:03;;;;;;;3.53;2.13;;;4.30;99.90;;;;;;3947468;30;20266;-93
2023/11/28 06:21:24;;;;;;;4.07;2.40;;;4.10;99.90;;;;;;3962913;29;20183;-93
2023/11/28 06:23:25;;;;;;;4.47;1.77;;;3.90;99.90;;;;;;3962036;29;20651;-90
2023/11/28 06:25:28;;;;;;;3.57;1.97;;;4.00;99.90;;;;;;3977394;29;20200;-92
2023/11/28 06:27:29;;;;;;;4.97;2.30;;;3.90;99.90;;;;;;3962094;29;20177;-92
2023/11/28 06:29:40;;;;;;;5.73;2.60;;;3.90;99.90;;;;;;3948411;30;20201;-94
2023/11/28 06:31:41;;;;;;;3.50;2.13;;;3.90;99.90;;;;;;3962697;29;20234;-93
2023/11/28 06:33:41;;;;;;;5.87;2.57;;;3.90;99.90;;;;;;3947097;30;20598;-93
2023/11/28 06:35:43;;;;;;;4.63;1.93;;;3.80;99.90;;;;;;3946988;30;20186;-93
2023/11/28 06:37:43;;;;;;;3.03;1.57;;;3.80;99.90;;;;;;3946837;30;20228;-92
2023/11/28 06:39:45;;;;;;;3.30;2.27;;;3.80;99.90;;;;;;3961497;29;20296;-91
2023/11/28 06:41:46;;;;;;;2.70;1.43;;;3.80;99.90;;;;;;3946964;30;20189;-92
2023/11/28 06:43:49;;;;;;;2.60;1.40;;;3.90;99.90;;;;;;3961431;30;20185;-91
2023/11/28 06:45:51;;;;;;;3.13;2.00;;;3.90;99.90;;;;;;3946621;30;20181;-92
2023/11/28 06:47:52;;;;;;;3.87;2.10;;;3.90;99.90;;;;;;3961323;29;20631;-91
2023/11/28 06:49:53;;;;;;;4.10;1.80;;;4.00;99.90;;;;;;3946790;30;20302;-91
2023/11/28 06:51:54;;;;;;;5.63;1.27;;;4.10;99.90;;;;;;3947354;30;20192;-92
2023/11/28 06:53:55;;;;;;;1.93;1.20;;;4.10;99.90;;;;;;3950139;30;20188;-92
2023/11/28 06:55:55;;;;;;;1.87;1.10;;;4.00;99.90;;;;;;3949642;30;20181;-92
2023/11/28 06:57:56;;;;;;;6.00;2.20;;;4.00;99.90;;;;;;3949811;30;20248;-93
2023/11/28 06:59:57;;;;;;;4.23;1.93;;;3.90;99.90;;;;;;3949455;30;20229;-92
2023/11/28 07:01:58;;;;;;;4.07;2.37;;;3.90;99.90;;;;;;3964417;30;20197;-92
2023/11/28 07:04:00;;;;;;;5.00;2.30;;;3.90;99.90;;;;;;3949614;30;20193;-91
2023/11/28 07:06:00;;;;;;;2.60;1.60;;;3.90;99.90;;;;;;3949749;30;20198;-92
2023/11/28 07:08:01;;;;;;;3.90;2.20;;;3.80;99.90;;;;;;3965024;29;20187;-93
2023/11/28 07:10:05;;;;;;;3.47;1.77;;;3.60;99.90;;;;;;3964478;29;20209;-92
2023/11/28 07:12:06;;;;;;;4.17;1.90;;;3.60;99.90;;;;;;3949915;30;20250;-91
2023/11/28 07:14:07;;;;;;;3.67;1.77;;;3.60;99.90;;;;;;3950193;30;20186;-91
2023/11/28 07:16:08;;;;;;;3.20;1.73;;;3.60;99.90;;;;;;3949233;30;20272;-92
2023/11/28 07:18:10;;;;;;;7.40;3.00;;;3.70;99.90;;;;;;3949543;30;20229;-92
2023/11/28 07:20:11;;;;;;;4.83;2.50;;;3.70;99.90;;;;;;3964082;29;20284;-91
2023/11/28 07:22:12;;;;;;;5.30;1.80;;;3.70;99.90;;;;;;3949215;30;20194;-91
2023/11/28 07:24:13;;;;;;;4.33;2.43;;;3.70;99.90;;;;;;3949365;30;20182;-92
2023/11/28 07:26:14;;;;;;;3.90;2.07;;;3.70;99.90;;;;;;3949273;30;20197;-90
2023/11/28 07:28:15;;;;;;;4.57;2.73;;;3.80;99.90;;;;;;3949310;30;20228;-93
2023/11/28 07:30:16;;;;;;;4.57;2.80;;;3.70;99.90;;;;;;3949162;30;20209;-91
2023/11/28 07:32:19;;;;;;;3.63;1.93;;;3.60;99.90;;;;;;3963779;30;20181;-91
2023/11/28 07:34:20;;;;;;;4.90;2.17;;;3.50;99.90;;;;;;3949310;30;20246;-92
2023/11/28 07:36:21;;;;;;;3.63;2.07;;;3.50;99.90;;;;;;3949350;30;20194;-91
2023/11/28 07:38:24;;;;;;;4.80;2.10;;;3.50;99.90;;;;;;3963747;29;20224;-92
2023/11/28 07:40:28;;;;;;;8.57;2.17;;;3.50;99.90;;;;;;3949212;30;20245;-91
2023/11/28 07:42:29;;;;;;;3.90;1.43;;;3.40;99.90;;;;;;3949417;30;20263;-93
2023/11/28 07:44:31;;;;;;;5.47;1.87;;;3.30;99.90;;;;;;3948740;30;20181;-92
2023/11/28 07:46:32;;;;;;;3.47;2.03;;;3.30;99.90;;;;;;3948982;30;20240;-92
2023/11/28 07:48:33;;;;;;;5.50;2.30;;;3.30;99.90;;;;;;3948941;30;20185;-92
2023/11/28 07:50:34;;;;;;;3.93;1.73;;;3.30;99.90;;;;;;3948687;30;20194;-92
2023/11/28 07:52:35;;;;;;;2.60;1.60;;;3.20;99.90;;;;;;3949124;30;20185;-91
2023/11/28 07:54:36;;;;;;;3.63;2.20;;;3.10;99.90;;;;;;3949047;30;20711;-90
2023/11/28 07:56:37;;;;;;;2.40;1.30;;;3.00;99.90;;;;;;3964049;30;20724;-93
2023/11/28 07:58:38;;;;;;;4.00;1.20;;;3.00;99.90;;;;;;3963889;29;20191;-94
2023/11/28 08:00:39;;;;;;;2.70;1.40;;;2.90;99.90;;;;;;3963573;30;20264;-92
2023/11/28 08:02:41;;;;;;;6.90;1.33;;;2.70;99.90;;;;;;3948364;30;20348;-93
2023/11/28 08:04:41;;;;;;;1.90;1.03;;;2.60;99.90;;;;;;3963466;29;20180;-92
2023/11/28 08:06:42;;;;;;;2.63;0.87;;;2.50;99.90;;;;;;3964127;29;20264;-92
2023/11/28 08:08:43;;;;;;;1.43;0.67;;;2.50;99.90;;;;;;3948714;30;20628;-91
2023/11/28 08:10:45;;;;;;;1.33;0.87;;;2.50;99.90;;;;;;3948976;29;20181;-92
2023/11/28 08:12:46;;;;;;;3.00;1.43;;;2.50;99.90;;;;;;3948892;30;20189;-92
2023/11/28 08:14:47;;;;;;;1.37;0.87;;;2.60;99.90;;;;;;3963162;29;20189;-91
2023/11/28 08:16:54;;;;;;;1.37;0.90;;;2.50;99.90;;;;;;3948357;30;20305;-91
2023/11/28 08:18:55;;;;;;;1.93;0.70;;;2.60;99.90;;;;;;3948820;30;20699;-92
2023/11/28 08:20:56;;;;;;;2.33;1.10;;;2.70;99.90;;;;;;3963491;30;20173;-93
2023/11/28 08:22:57;;;;;;;2.13;0.80;;;2.80;99.90;;;;;;3948388;30;20246;-91
2023/11/28 08:25:00;;;;;;;0.97;0.70;;;3.00;99.90;;;;;;3963297;29;20173;-92
2023/11/28 08:27:01;;;;;;;1.73;0.90;;;3.20;99.90;;;;;;3948588;30;20186;-92
2023/11/28 08:29:02;;;;;;;2.20;0.97;;;3.40;99.90;;;;;;3963028;29;20760;-91
2023/11/28 08:31:03;;;;;;;1.30;0.70;;;3.80;99.90;;;;;;3948255;30;20181;-92
2023/11/28 08:33:04;;;;;;;0.90;0.70;;;4.00;99.90;;;;;;3948765;30;20262;-93
2023/11/28 08:35:05;;;;;;;1.87;0.60;;;4.20;99.90;;;;;;3948446;30;20182;-92
2023/11/28 08:37:06;;;;;;;2.40;1.17;;;4.10;99.90;;;;;;3963207;30;20266;-92
2023/11/28 08:39:07;;;;;;;2.10;1.17;;;3.80;99.90;;;;;;3948500;30;20202;-91
2023/11/28 08:41:10;;;;;;;2.00;0.87;;;3.60;99.90;;;;;;3948139;30;20186;-91
2023/11/28 08:43:11;;;;;;;1.33;0.50;;;3.60;99.90;;;;;;3948292;30;20189;-92
2023/11/28 08:45:12;;;;;;;2.17;0.50;;;3.60;99.90;;;;;;3963135;30;20271;-92
2023/11/28 08:47:12;;;;;;;1.10;0.70;;;3.50;99.90;;;;;;3948394;30;20178;-91
2023/11/28 08:49:14;;;;;;;3.10;1.20;;;3.50;99.90;;;;;;3947991;30;20198;-91
2023/11/28 08:51:15;;;;;;;1.20;0.73;;;3.50;99.90;;;;;;3948142;30;20560;-92
2023/11/28 08:53:16;;;;;;;2.47;1.07;;;3.30;99.90;;;;;;3963029;29;20185;-93
2023/11/28 08:55:17;;;;;;;1.53;0.70;;;3.20;99.90;;;;;;3948131;30;20173;-92
2023/11/28 08:57:18;;;;;;;2.53;0.97;;;3.20;99.90;;;;;;3947785;30;20289;-92
2023/11/28 08:59:19;;;;;;;1.03;0.47;;;3.20;99.90;;;;;;3962902;29;20213;-91
2023/11/28 09:01:20;;;;;;;1.20;0.87;;;3.40;99.90;;;;;;3962972;29;20681;-92
2023/11/28 09:03:21;;;;;;;3.90;0.90;;;3.30;99.90;;;;;;3947612;30;20675;-92
2023/11/28 09:05:22;;;;;;;1.70;0.90;;;3.30;99.90;;;;;;3962355;29;20225;-92
2023/11/28 09:07:23;;;;;;;1.27;0.63;;;3.20;99.90;;;;;;3947748;30;20196;-92
2023/11/28 09:09:24;;;;;;;1.17;1.03;;;3.20;99.90;;;;;;3962396;29;20205;-93
2023/11/28 09:11:25;;;;;;;2.27;1.00;;;3.30;99.90;;;;;;3947673;30;20659;-93
2023/11/28 09:13:27;;;;;;;2.43;1.20;;;3.30;99.90;;;;;;3948010;30;20185;-93
2023/11/28 09:15:28;;;;;;;1.37;0.60;;;3.20;99.90;;;;;;3947294;30;20181;-92
2023/11/28 09:17:29;;;;;;;1.83;0.80;;;3.00;99.90;;;;;;3947985;30;20695;-92
2023/11/28 09:19:30;;;;;;;2.03;1.10;;;3.00;99.90;;;;;;3948374;29;20209;-92
2023/11/28 09:21:30;;;;;;;1.30;0.40;;;3.00;99.90;;;;;;3947534;30;20725;-91
2023/11/28 09:23:31;;;;;;;0.70;0.70;;;2.80;99.90;;;;;;3947707;30;20189;-93
2023/11/28 09:25:32;;;;;;;2.13;0.90;;;2.80;99.90;;;;;;3962412;30;20666;-93
2023/11/28 09:27:34;;;;;;;1.33;0.70;;;2.90;99.90;;;;;;3948176;29;20233;-93
2023/11/28 09:29:35;;;;;;;1.63;0.87;;;3.00;99.90;;;;;;3964193;29;20212;-92
2023/11/28 09:31:38;;;;;;;1.23;0.53;;;2.90;99.90;;;;;;3947712;30;20178;-92
2023/11/28 09:33:39;;;;;;;1.73;0.80;;;2.80;99.90;;;;;;3934168;30;20206;-92
2023/11/28 09:35:40;;;;;;;1.10;0.67;;;2.80;99.90;;;;;;3947546;30;20248;-92
2023/11/28 09:37:41;;;;;;;0.83;0.47;;;2.80;99.90;;;;;;3947334;30;20575;-93
2023/11/28 09:39:43;;;;;;;1.90;0.87;;;2.90;99.90;;;;;;3947624;30;20278;-91
2023/11/28 09:41:45;;;;;;;1.90;0.67;;;2.90;99.90;;;;;;3946973;30;20190;-87
2023/11/28 09:43:48;;;;;;;0.23;0.20;;;3.10;99.90;;;;;;3947274;30;20181;-88
2023/11/28 09:45:49;;;;;;;1.20;0.40;;;3.10;99.90;;;;;;3946621;30;20181;-88
2023/11/28 09:47:52;;;;;;;0.87;0.63;;;3.10;99.90;;;;;;3947181;30;20288;-88
2023/11/28 09:49:56;;;;;;;3.10;1.37;;;3.00;99.90;;;;;;3947482;30;20198;-88
2023/11/28 09:51:58;;;;;;;1.20;0.60;;;3.00;99.90;;;;;;3962208;29;20189;-88
2023/11/28 09:54:02;;;;;;;1.10;0.70;;;2.90;99.90;;;;;;3947360;30;20636;-88
2023/11/28 09:56:04;;;;;;;1.20;0.73;;;3.20;99.90;;;;;;3961767;29;20181;-88
2023/11/28 09:58:07;;;;;;;2.63;1.13;;;3.30;99.90;;;;;;3947291;30;20599;-87
2023/11/28 10:00:11;;;;;;;0.97;0.90;;;3.30;99.90;;;;;;3947201;30;20201;-87
2023/11/28 10:02:15;;;;;;;1.13;0.80;;;3.30;99.90;;;;;;3962605;30;20165;-87
2023/11/28 10:04:16;;;;;;;1.13;0.93;;;3.30;99.90;;;;;;3946997;30;20181;-88
2023/11/28 10:06:20;;;;;;;1.43;0.80;;;3.60;99.90;;;;;;3961844;30;20238;-87
2023/11/28 10:08:23;;;;;;;2.47;1.20;;;3.80;99.90;;;;;;3962011;29;20180;-87
2023/11/28 10:10:25;;;;;;;2.33;1.00;;;3.80;99.90;;;;;;3947125;30;20208;-88
2023/11/28 10:12:26;;;;;;;1.67;0.70;;;4.00;99.90;;;;;;3947314;30;20186;-88
2023/11/28 10:14:27;;;;;;;2.33;1.10;;;4.30;99.90;;;;;;3947244;29;20190;-88
2023/11/28 10:16:46;;;;;;;0.97;0.70;;;4.50;99.90;;;;;;3947203;30;20182;-87
2023/11/28 10:18:47;;;;;;;1.73;0.83;;;4.40;99.90;;;;;;3961741;29;20341;-87
2023/11/28 10:20:49;;;;;;;0.57;0.50;;;4.30;99.90;;;;;;3947311;30;20269;-88
2023/11/28 10:22:52;;;;;;;1.57;0.83;;;4.30;99.90;;;;;;3947269;29;20269;-87
2023/11/28 10:24:56;;;;;;;0.93;0.50;;;3.80;99.90;;;;;;3961962;29;20185;-88
2023/11/28 10:26:57;;;;;;;2.00;0.83;;;3.60;99.90;;;;;;3949191;30;20186;-89
2023/11/28 10:28:57;;;;;;;1.57;1.00;;;3.50;99.90;;;;;;3964832;30;20293;-88
2023/11/28 10:30:59;;;;;;;2.07;0.77;;;4.10;99.90;;;;;;3950051;30;20188;-88
2023/11/28 10:33:00;;;;;;;2.83;1.03;;;4.20;99.90;;;;;;3950141;30;20185;-88
2023/11/28 10:35:01;;;;;;;1.83;0.83;;;4.60;99.90;;;;;;3950125;30;20185;-88
2023/11/28 10:37:02;;;;;;;1.50;0.77;;;4.80;99.90;;;;;;3964847;30;20221;-89
2023/11/28 10:39:03;;;;;;;2.83;0.57;;;4.80;99.90;;;;;;3950106;30;20204;-87
2023/11/28 10:41:04;;;;;;;1.57;0.60;;;4.60;99.90;;;;;;3964686;30;20188;-88
2023/11/28 10:43:07;;;;;;;1.13;0.50;;;4.50;99.90;;;;;;3949895;30;20574;-88
2023/11/28 10:45:10;;;;;;;4.17;1.33;;;4.90;99.90;;;;;;3964687;29;20181;-88
2023/11/28 10:47:12;;;;;;;0.60;0.37;;;5.10;99.90;;;;;;3964965;29;20242;-88
2023/11/28 10:49:13;;;;;;;2.10;0.60;;;5.10;99.90;;;;;;3964579;29;20760;-87
2023/11/28 10:51:16;;;;;;;1.10;0.63;;;4.80;99.90;;;;;;3964602;29;20177;-88